createdAt,value
2023-10-06T00:01:20.809Z,9.80
2023-10-06T00:03:55.035Z,9.80
2023-10-06T00:06:28.960Z,9.80
2023-10-06T00:09:01.542Z,9.70
2023-10-06T00:11:34.029Z,9.70
2023-10-06T00:14:12.832Z,9.70
2023-10-06T00:16:45.733Z,9.80
2023-10-06T00:19:29.520Z,9.70
2023-10-06T00:22:06.559Z,9.60
2023-10-06T00:24:39.008Z,9.40
2023-10-06T00:27:12.721Z,9.30
2023-10-06T00:29:48.254Z,9.30
2023-10-06T00:32:28.193Z,9.30
2023-10-06T00:35:05.448Z,9.30
2023-10-06T00:37:40.820Z,9.20
2023-10-06T00:40:16.802Z,9.20
2023-10-06T00:42:56.653Z,9.20
2023-10-06T00:45:30.577Z,9.20
2023-10-06T00:48:05.150Z,9.30
2023-10-06T00:50:37.966Z,9.30
2023-10-06T00:53:12.239Z,9.30
2023-10-06T00:55:45.871Z,9.20
2023-10-06T00:58:19.898Z,9.00
2023-10-06T01:00:53.819Z,8.90
2023-10-06T01:03:26.945Z,8.80
2023-10-06T01:06:01.910Z,8.80
2023-10-06T01:08:34.590Z,8.80
2023-10-06T01:11:13.690Z,8.80
2023-10-06T01:13:57.425Z,8.80
2023-10-06T01:16:33.925Z,8.90
2023-10-06T01:19:16.841Z,8.90
2023-10-06T01:21:52.191Z,9.00
2023-10-06T01:24:26.769Z,9.00
2023-10-06T01:27:02.247Z,9.10
2023-10-06T01:29:35.000Z,9.10
2023-10-06T01:32:07.715Z,9.10
2023-10-06T01:34:40.586Z,9.00
2023-10-06T01:37:13.336Z,9.10
2023-10-06T01:39:47.461Z,9.00
2023-10-06T01:42:21.430Z,9.00
2023-10-06T01:44:53.879Z,9.00
2023-10-06T01:47:28.086Z,9.00
2023-10-06T01:50:01.063Z,8.90
2023-10-06T01:52:33.623Z,8.90
2023-10-06T01:55:09.078Z,8.90
2023-10-06T01:57:41.724Z,8.90
2023-10-06T02:00:18.730Z,8.90
2023-10-06T02:02:52.245Z,8.80
2023-10-06T02:05:24.941Z,8.80
2023-10-06T02:08:00.288Z,8.80
2023-10-06T02:10:33.839Z,8.80
2023-10-06T02:13:07.860Z,8.70
2023-10-06T02:15:40.320Z,8.70
2023-10-06T02:18:14.034Z,8.60
2023-10-06T02:20:48.060Z,8.60
2023-10-06T02:23:20.387Z,8.70
2023-10-06T02:25:52.826Z,8.70
2023-10-06T02:28:25.389Z,8.60
2023-10-06T02:31:00.942Z,8.60
2023-10-06T02:33:35.516Z,8.60
2023-10-06T02:36:17.154Z,8.50
2023-10-06T02:38:50.239Z,8.30
2023-10-06T02:41:27.716Z,8.20
2023-10-06T02:44:02.841Z,8.20
2023-10-06T02:46:37.812Z,8.20
2023-10-06T02:49:11.167Z,8.20
2023-10-06T02:51:49.378Z,8.30
2023-10-06T02:54:26.477Z,8.30
2023-10-06T02:56:58.792Z,8.30
2023-10-06T02:59:32.689Z,8.30
2023-10-06T03:02:08.862Z,8.30
2023-10-06T03:04:43.411Z,8.30
2023-10-06T03:07:18.092Z,8.20
2023-10-06T03:09:50.467Z,8.10
2023-10-06T03:12:26.063Z,8.10
2023-10-06T03:14:58.969Z,8.00
2023-10-06T03:17:32.248Z,8.00
2023-10-06T03:20:11.456Z,8.10
2023-10-06T03:22:45.806Z,8.00
2023-10-06T03:25:19.424Z,8.00
2023-10-06T03:27:53.571Z,7.90
2023-10-06T03:30:29.804Z,7.80
2023-10-06T03:33:04.068Z,7.80
2023-10-06T03:35:37.834Z,7.80
2023-10-06T03:38:15.478Z,7.90
2023-10-06T03:40:49.811Z,7.90
2023-10-06T03:43:37.184Z,7.90
2023-10-06T03:46:13.255Z,7.90
2023-10-06T03:48:45.975Z,7.90
2023-10-06T03:51:19.104Z,8.00
2023-10-06T03:53:51.728Z,8.10
2023-10-06T03:56:24.216Z,8.10
2023-10-06T03:58:56.692Z,8.10
2023-10-06T04:01:29.243Z,8.10
2023-10-06T04:04:01.829Z,8.20
2023-10-06T04:06:35.953Z,8.10
2023-10-06T04:09:10.349Z,8.20
2023-10-06T04:11:44.498Z,8.20
2023-10-06T04:14:17.026Z,8.20
2023-10-06T04:16:51.001Z,8.10
2023-10-06T04:19:24.286Z,8.00
2023-10-06T04:21:56.730Z,7.90
2023-10-06T04:24:29.051Z,7.80
2023-10-06T04:27:01.445Z,7.80
2023-10-06T04:29:35.371Z,7.70
2023-10-06T04:32:09.545Z,7.60
2023-10-06T04:34:41.992Z,7.50
2023-10-06T04:37:14.522Z,7.50
2023-10-06T04:39:47.005Z,7.50
2023-10-06T04:42:21.134Z,7.40
2023-10-06T04:44:55.057Z,7.40
2023-10-06T04:47:28.502Z,7.50
2023-10-06T04:50:00.956Z,7.50
2023-10-06T04:52:33.692Z,7.60
2023-10-06T04:55:07.154Z,7.60
2023-10-06T04:57:40.810Z,7.60
2023-10-06T05:00:16.633Z,7.60
2023-10-06T05:02:51.541Z,7.60
2023-10-06T05:05:27.193Z,7.60
2023-10-06T05:07:58.206Z,7.60
2023-10-06T05:10:32.129Z,7.70
2023-10-06T05:13:06.140Z,7.80
2023-10-06T05:15:40.669Z,7.80
2023-10-06T05:18:14.775Z,7.80
2023-10-06T05:20:47.824Z,7.80
2023-10-06T05:23:21.902Z,7.80
2023-10-06T05:25:55.419Z,7.80
2023-10-06T05:28:28.291Z,7.70
2023-10-06T05:31:01.448Z,7.70
2023-10-06T05:33:33.993Z,7.70
2023-10-06T05:36:13.283Z,7.60
2023-10-06T05:38:46.795Z,7.60
2023-10-06T05:41:19.644Z,7.70
2023-10-06T05:43:52.294Z,7.70
2023-10-06T05:46:26.039Z,7.80
2023-10-06T05:49:00.000Z,7.80
2023-10-06T05:51:34.325Z,7.80
2023-10-06T05:54:09.192Z,7.80
2023-10-06T05:56:43.121Z,7.80
2023-10-06T05:59:17.128Z,7.80
2023-10-06T06:01:52.046Z,7.90
2023-10-06T06:04:26.023Z,8.00
2023-10-06T06:07:00.862Z,8.00
2023-10-06T06:09:34.906Z,8.00
2023-10-06T06:12:08.952Z,8.10
2023-10-06T06:14:41.304Z,8.20
2023-10-06T06:17:13.649Z,8.30
2023-10-06T06:19:45.961Z,8.40
2023-10-06T06:22:20.725Z,8.60
2023-10-06T06:24:53.660Z,8.80
2023-10-06T06:27:26.669Z,8.90
2023-10-06T06:29:59.298Z,9.00
2023-10-06T06:32:32.340Z,9.10
2023-10-06T06:35:07.021Z,9.30
2023-10-06T06:37:39.455Z,9.40
2023-10-06T06:40:14.527Z,9.60
2023-10-06T06:42:47.128Z,9.80
2023-10-06T06:45:20.443Z,10.10
2023-10-06T06:47:52.886Z,10.40
2023-10-06T06:50:25.596Z,10.50
2023-10-06T06:52:58.584Z,10.60
2023-10-06T06:55:32.314Z,10.60
2023-10-06T06:58:09.240Z,10.80
2023-10-06T07:00:42.279Z,11.00
2023-10-06T07:03:16.295Z,11.20
2023-10-06T07:05:49.173Z,11.20
2023-10-06T07:08:21.552Z,11.30
2023-10-06T07:10:54.672Z,11.40
2023-10-06T07:13:27.174Z,11.60
2023-10-06T07:16:00.800Z,11.80
2023-10-06T07:18:33.572Z,12.00
2023-10-06T07:21:11.456Z,12.10
2023-10-06T07:23:44.076Z,12.20
2023-10-06T07:26:16.891Z,12.40
2023-10-06T07:28:51.085Z,12.60
2023-10-06T07:31:28.373Z,12.80
2023-10-06T07:34:02.823Z,12.70
2023-10-06T07:36:37.033Z,12.70
2023-10-06T07:39:12.476Z,12.70
2023-10-06T07:41:45.908Z,12.70
2023-10-06T07:44:20.069Z,12.90
2023-10-06T07:48:43.474Z,13.20
2023-10-06T07:51:17.764Z,13.40
2023-10-06T07:53:50.548Z,13.50
2023-10-06T07:56:23.159Z,13.70
2023-10-06T07:58:55.954Z,13.80
2023-10-06T08:01:29.415Z,13.90
2023-10-06T08:04:02.480Z,14.00
2023-10-06T08:06:35.795Z,14.00
2023-10-06T08:09:09.958Z,14.10
2023-10-06T08:11:44.131Z,14.20
2023-10-06T08:14:16.805Z,14.40
2023-10-06T08:16:51.266Z,14.50
2023-10-06T08:19:23.772Z,14.70
2023-10-06T08:21:57.380Z,14.60
2023-10-06T08:24:30.273Z,14.70
2023-10-06T08:27:02.874Z,14.70
2023-10-06T08:29:35.529Z,14.90
2023-10-06T08:32:08.720Z,14.90
2023-10-06T08:34:41.482Z,15.10
2023-10-06T08:37:14.075Z,15.10
2023-10-06T08:39:48.117Z,15.10
2023-10-06T08:42:22.557Z,15.20
2023-10-06T08:44:55.278Z,15.30
2023-10-06T08:47:34.187Z,15.40
2023-10-06T08:50:03.222Z,15.50
2023-10-06T08:52:37.576Z,15.60
2023-10-06T08:55:12.568Z,15.50
2023-10-06T08:57:46.714Z,15.50
2023-10-06T09:00:22.889Z,15.60
2023-10-06T09:02:57.058Z,15.70
2023-10-06T09:05:30.869Z,15.90
2023-10-06T09:08:06.657Z,16.10
2023-10-06T09:10:41.761Z,16.30
2023-10-06T09:13:17.340Z,16.50
2023-10-06T09:16:00.923Z,16.60
2023-10-06T09:18:36.060Z,16.90
2023-10-06T09:21:17.693Z,17.00
2023-10-06T09:23:51.287Z,17.00
2023-10-06T09:26:32.402Z,17.10
2023-10-06T09:29:05.349Z,17.10
2023-10-06T09:31:39.941Z,17.20
2023-10-06T09:34:13.396Z,17.20
2023-10-06T09:36:54.113Z,17.30
2023-10-06T09:39:34.689Z,17.40
2023-10-06T09:42:09.437Z,17.60
2023-10-06T09:44:44.426Z,17.70
2023-10-06T09:47:21.214Z,17.90
2023-10-06T09:49:54.994Z,18.10
2023-10-06T09:55:10.937Z,18.30
2023-10-06T09:57:45.496Z,18.40
2023-10-06T10:00:19.911Z,18.50
2023-10-06T10:02:54.847Z,18.60
2023-10-06T10:05:29.235Z,18.60
2023-10-06T10:08:04.002Z,18.70
2023-10-06T10:10:39.253Z,18.70
2023-10-06T10:16:33.610Z,18.70
2023-10-06T10:19:09.382Z,18.70
2023-10-06T10:21:43.381Z,18.90
2023-10-06T10:26:52.690Z,19.40
2023-10-06T10:29:37.258Z,19.60
2023-10-06T10:32:17.967Z,19.50
2023-10-06T10:38:05.891Z,19.30
2023-10-06T10:40:51.431Z,19.50
2023-10-06T10:43:25.003Z,19.80
2023-10-06T10:46:00.579Z,20.00
2023-10-06T10:48:38.713Z,20.10
2023-10-06T10:51:16.494Z,20.10
2023-10-06T10:53:51.049Z,20.10
2023-10-06T10:56:37.854Z,20.20
2023-10-06T10:59:10.771Z,20.30
2023-10-06T11:01:45.586Z,20.60
2023-10-06T11:04:37.984Z,20.70
2023-10-06T11:07:16.906Z,20.80
2023-10-06T11:09:49.957Z,21.00
2023-10-06T11:12:27.383Z,21.00
2023-10-06T11:15:06.452Z,21.10
2023-10-06T11:17:39.106Z,21.30
2023-10-06T11:20:19.648Z,21.40
2023-10-06T11:22:55.152Z,21.60
2023-10-06T11:25:29.759Z,21.70
2023-10-06T11:28:05.232Z,21.80
2023-10-06T11:30:40.353Z,21.80
2023-10-06T11:33:15.371Z,21.80
2023-10-06T11:35:49.968Z,21.80
2023-10-06T11:38:22.681Z,21.80
2023-10-06T11:40:57.508Z,21.90
2023-10-06T11:43:31.792Z,22.00
2023-10-06T11:46:06.227Z,22.10
2023-10-06T11:48:40.030Z,22.30
2023-10-06T11:51:14.324Z,22.40
2023-10-06T11:53:47.110Z,22.50
2023-10-06T11:56:21.087Z,22.60
2023-10-06T11:58:53.988Z,22.60
2023-10-06T12:01:32.404Z,22.70
2023-10-06T12:04:06.936Z,22.80
2023-10-06T12:06:44.210Z,22.90
2023-10-06T12:09:29.101Z,23.00
2023-10-06T12:12:02.714Z,23.20
2023-10-06T12:14:36.309Z,23.30
2023-10-06T12:17:09.357Z,23.40
2023-10-06T12:19:43.483Z,23.50
2023-10-06T12:22:17.219Z,23.60
2023-10-06T12:24:49.840Z,23.70
2023-10-06T12:27:22.430Z,23.80
2023-10-06T12:29:56.984Z,23.80
2023-10-06T12:32:31.059Z,23.90
2023-10-06T12:35:09.057Z,24.00
2023-10-06T12:37:43.098Z,23.90
2023-10-06T12:40:17.203Z,23.90
2023-10-06T12:42:50.582Z,24.00
2023-10-06T12:45:24.505Z,24.20
2023-10-06T12:47:56.899Z,24.20
2023-10-06T12:50:31.110Z,24.30
2023-10-06T12:53:04.152Z,24.40
2023-10-06T12:55:37.017Z,24.60
2023-10-06T12:58:11.432Z,24.70
2023-10-06T13:00:44.230Z,24.80
2023-10-06T13:03:20.052Z,24.80
2023-10-06T13:05:52.861Z,24.80
2023-10-06T13:08:26.555Z,24.90
2023-10-06T13:10:59.262Z,24.80
2023-10-06T13:13:34.057Z,24.70
2023-10-06T13:16:08.912Z,24.80
2023-10-06T13:18:42.368Z,24.80
2023-10-06T13:21:14.703Z,24.90
2023-10-06T13:23:47.156Z,25.00
2023-10-06T13:26:40.131Z,25.00
2023-10-06T13:28:56.632Z,25.10
2023-10-06T13:31:29.227Z,25.20
2023-10-06T13:34:01.599Z,25.50
2023-10-06T13:36:34.083Z,25.60
2023-10-06T13:39:08.751Z,25.70
2023-10-06T13:41:43.593Z,25.70
2023-10-06T13:44:16.645Z,25.70
2023-10-06T13:46:49.046Z,25.70
2023-10-06T13:49:21.525Z,25.60
2023-10-06T13:51:54.623Z,25.60
2023-10-06T13:54:27.079Z,25.50
2023-10-06T13:56:59.794Z,25.60
2023-10-06T13:59:35.504Z,25.60
2023-10-06T14:02:08.792Z,25.60
2023-10-06T14:04:41.747Z,25.60
2023-10-06T14:07:14.180Z,25.50
2023-10-06T14:09:47.103Z,25.40
2023-10-06T14:12:21.014Z,25.30
2023-10-06T14:15:03.096Z,25.40
2023-10-06T14:17:36.199Z,25.30
2023-10-06T14:20:12.648Z,25.40
2023-10-06T14:22:45.564Z,25.40
2023-10-06T14:25:19.879Z,25.50
2023-10-06T14:27:52.535Z,25.60
2023-10-06T14:30:27.801Z,25.60
2023-10-06T14:33:11.528Z,25.60
2023-10-06T14:35:57.113Z,25.40
2023-10-06T14:38:48.228Z,25.00
2023-10-06T14:41:38.247Z,24.70
2023-10-06T14:44:28.220Z,24.30
2023-10-06T14:47:02.709Z,23.80
2023-10-06T14:49:35.198Z,23.50
2023-10-06T14:52:09.863Z,23.20
2023-10-06T14:54:42.346Z,23.20
2023-10-06T14:57:14.912Z,23.20
2023-10-06T14:59:47.368Z,23.10
2023-10-06T15:02:21.588Z,22.90
2023-10-06T15:04:55.740Z,22.80
2023-10-06T15:07:28.473Z,22.80
2023-10-06T15:10:02.117Z,23.00
2023-10-06T15:12:36.216Z,23.50
2023-10-06T15:15:12.987Z,23.80
2023-10-06T15:17:53.996Z,23.80
2023-10-06T15:20:21.054Z,23.80
2023-10-06T15:22:54.615Z,24.00
2023-10-06T15:25:28.751Z,24.00
2023-10-06T15:28:03.027Z,23.70
2023-10-06T15:30:43.036Z,23.60
2023-10-06T15:33:15.476Z,23.30
2023-10-06T15:35:48.010Z,22.90
2023-10-06T15:38:21.544Z,22.70
2023-10-06T15:40:58.740Z,22.50
2023-10-06T15:43:32.563Z,22.30
2023-10-06T15:46:08.675Z,22.30
2023-10-06T15:48:42.211Z,22.20
2023-10-06T15:51:16.425Z,23.10
2023-10-06T15:53:48.828Z,24.20
2023-10-06T15:56:21.331Z,24.50
2023-10-06T15:58:55.342Z,24.70
2023-10-06T16:01:28.387Z,24.70
2023-10-06T16:04:00.965Z,24.70
2023-10-06T16:06:35.760Z,24.40
2023-10-06T16:09:10.245Z,24.20
2023-10-06T16:11:44.110Z,23.80
2023-10-06T16:14:17.817Z,23.40
2023-10-06T16:16:50.563Z,23.00
2023-10-06T16:19:23.227Z,22.50
2023-10-06T16:21:56.813Z,22.20
2023-10-06T16:24:29.362Z,21.80
2023-10-06T16:27:01.982Z,21.50
2023-10-06T16:29:34.612Z,21.20
2023-10-06T16:32:07.948Z,20.90
2023-10-06T16:34:42.728Z,20.70
2023-10-06T16:37:17.136Z,20.40
2023-10-06T16:39:50.158Z,20.20
2023-10-06T16:42:22.595Z,20.00
2023-10-06T16:44:55.567Z,19.80
2023-10-06T16:47:28.716Z,19.70
2023-10-06T16:50:01.270Z,19.50
2023-10-06T16:52:33.696Z,19.40
2023-10-06T16:55:08.239Z,19.20
2023-10-06T16:57:40.687Z,19.10
2023-10-06T17:00:14.709Z,18.90
2023-10-06T17:02:47.632Z,18.80
2023-10-06T17:05:22.774Z,18.60
2023-10-06T17:07:56.849Z,18.50
2023-10-06T17:10:30.803Z,18.40
2023-10-06T17:13:03.288Z,18.30
2023-10-06T17:15:36.701Z,18.10
2023-10-06T17:18:09.577Z,17.90
2023-10-06T17:20:42.224Z,17.80
2023-10-06T17:23:15.037Z,17.60
2023-10-06T17:25:47.548Z,17.40
2023-10-06T17:28:20.243Z,17.30
2023-10-06T17:30:53.516Z,17.20
2023-10-06T17:33:25.982Z,17.10
2023-10-06T17:35:58.787Z,16.90
2023-10-06T17:38:31.255Z,16.80
2023-10-06T17:41:05.998Z,16.70
2023-10-06T17:43:38.212Z,16.50
2023-10-06T17:46:15.248Z,16.50
2023-10-06T17:48:48.653Z,16.50
2023-10-06T17:51:22.248Z,16.40
2023-10-06T17:53:54.794Z,16.40
2023-10-06T17:56:28.645Z,16.40
2023-10-06T17:59:02.073Z,16.30
2023-10-06T18:01:34.717Z,16.30
2023-10-06T18:04:07.879Z,16.20
2023-10-06T18:06:40.921Z,16.20
2023-10-06T18:09:14.916Z,16.10
2023-10-06T18:12:02.534Z,16.00
2023-10-06T18:14:21.451Z,15.90
2023-10-06T18:16:55.475Z,15.80
2023-10-06T18:19:29.265Z,15.70
2023-10-06T18:22:02.602Z,15.60
2023-10-06T18:24:35.040Z,15.50
2023-10-06T18:27:08.827Z,15.40
2023-10-06T18:29:42.330Z,15.30
2023-10-06T18:32:14.842Z,15.20
2023-10-06T18:34:47.616Z,15.10
2023-10-06T18:37:21.077Z,15.00
2023-10-06T18:39:54.149Z,15.00
2023-10-06T18:42:27.742Z,15.00
2023-10-06T18:45:00.147Z,14.90
2023-10-06T18:47:33.047Z,14.90
2023-10-06T18:50:06.156Z,14.70
2023-10-06T18:52:39.297Z,14.70
2023-10-06T18:55:14.093Z,14.60
2023-10-06T18:57:47.896Z,14.50
2023-10-06T19:00:22.874Z,14.50
2023-10-06T19:02:55.433Z,14.40
2023-10-06T19:05:28.030Z,14.30
2023-10-06T19:08:00.772Z,14.20
2023-10-06T19:10:36.470Z,14.20
2023-10-06T19:13:09.855Z,14.10
2023-10-06T19:15:46.971Z,14.10
2023-10-06T19:18:19.890Z,14.00
2023-10-06T19:21:00.653Z,14.00
2023-10-06T19:23:35.236Z,13.90
2023-10-06T19:26:09.891Z,13.90
2023-10-06T19:28:43.136Z,13.80
2023-10-06T19:31:16.008Z,13.80
2023-10-06T19:33:51.320Z,13.70
2023-10-06T19:36:24.296Z,13.60
2023-10-06T19:38:58.345Z,13.50
2023-10-06T19:41:30.794Z,13.50
2023-10-06T19:44:04.147Z,13.40
2023-10-06T19:46:36.788Z,13.40
2023-10-06T19:49:09.729Z,13.40
2023-10-06T19:51:43.090Z,13.40
2023-10-06T19:54:16.708Z,13.30
2023-10-06T19:56:49.200Z,13.20
2023-10-06T19:59:21.998Z,13.10
2023-10-06T20:01:55.653Z,13.00
2023-10-06T20:04:28.254Z,13.00
2023-10-06T20:07:00.867Z,12.90
2023-10-06T20:09:34.419Z,12.90
2023-10-06T20:12:08.751Z,12.90
2023-10-06T20:14:42.810Z,12.80
2023-10-06T20:17:16.298Z,12.80
2023-10-06T20:19:48.794Z,12.70
2023-10-06T20:22:22.538Z,12.70
2023-10-06T20:24:55.248Z,12.60
2023-10-06T20:27:28.251Z,12.50
2023-10-06T20:30:01.033Z,12.40
2023-10-06T20:32:35.607Z,12.20
2023-10-06T20:35:09.332Z,12.20
2023-10-06T20:37:41.917Z,12.10
2023-10-06T20:40:18.396Z,12.00
2023-10-06T20:42:51.532Z,11.90
2023-10-06T20:45:24.144Z,11.80
2023-10-06T20:47:57.056Z,11.80
2023-10-06T20:50:30.562Z,11.70
2023-10-06T20:53:03.105Z,11.70
2023-10-06T20:55:36.144Z,11.70
2023-10-06T20:58:09.119Z,11.70
2023-10-06T21:00:42.588Z,11.70
2023-10-06T21:03:16.963Z,11.80
2023-10-06T21:05:50.836Z,11.80
2023-10-06T21:08:23.390Z,11.80
2023-10-06T21:10:55.953Z,11.70
2023-10-06T21:13:28.381Z,11.60
2023-10-06T21:16:01.155Z,11.60
2023-10-06T21:18:34.478Z,11.60
2023-10-06T21:21:07.888Z,11.60
2023-10-06T21:23:40.389Z,11.60
2023-10-06T21:26:12.850Z,11.50
2023-10-06T21:28:46.197Z,11.50
2023-10-06T21:31:19.162Z,11.60
2023-10-06T21:33:51.599Z,11.50
2023-10-06T21:36:24.346Z,11.50
2023-10-06T21:38:58.092Z,11.50
2023-10-06T21:41:30.429Z,11.40
2023-10-06T21:44:03.045Z,11.40
2023-10-06T21:46:35.434Z,11.40
2023-10-06T21:49:08.015Z,11.30
2023-10-06T21:51:40.608Z,11.30
2023-10-06T21:54:13.030Z,11.30
2023-10-06T21:56:49.161Z,11.30
2023-10-06T21:59:21.618Z,11.30
2023-10-06T22:01:54.091Z,11.20
2023-10-06T22:04:26.891Z,11.20
2023-10-06T22:06:59.592Z,11.10
2023-10-06T22:09:32.092Z,11.20
2023-10-06T22:12:04.797Z,11.10
2023-10-06T22:14:37.371Z,11.10
2023-10-06T22:17:10.300Z,11.10
2023-10-06T22:19:43.345Z,11.00
2023-10-06T22:22:17.169Z,11.10
2023-10-06T22:24:52.546Z,11.00
2023-10-06T22:27:26.889Z,10.90
2023-10-06T22:29:59.555Z,10.80
2023-10-06T22:32:32.019Z,10.80
2023-10-06T22:35:06.224Z,10.80
2023-10-06T22:37:38.987Z,10.80
2023-10-06T22:40:15.833Z,10.80
2023-10-06T22:42:49.568Z,10.80
2023-10-06T22:45:22.326Z,10.70
2023-10-06T22:47:54.706Z,10.70
2023-10-06T22:50:27.357Z,10.70
2023-10-06T22:53:00.226Z,10.70
2023-10-06T22:55:32.774Z,10.70
2023-10-06T22:58:05.586Z,10.70
2023-10-06T23:00:39.868Z,10.70
2023-10-06T23:03:12.167Z,10.70
2023-10-06T23:05:45.114Z,10.70
2023-10-06T23:08:17.542Z,10.70
2023-10-06T23:10:50.068Z,10.70
2023-10-06T23:13:22.741Z,10.70
2023-10-06T23:15:56.938Z,10.60
2023-10-06T23:18:30.850Z,10.60
2023-10-06T23:21:03.948Z,10.60
2023-10-06T23:23:38.960Z,10.60
2023-10-06T23:26:12.060Z,10.60
2023-10-06T23:28:46.352Z,10.60
2023-10-06T23:31:20.419Z,10.70
2023-10-06T23:33:52.928Z,10.70
2023-10-06T23:36:25.478Z,10.70
2023-10-06T23:38:59.830Z,10.70
2023-10-06T23:41:33.148Z,10.60
2023-10-06T23:44:08.399Z,10.60
2023-10-06T23:46:41.187Z,10.50
2023-10-06T23:49:13.886Z,10.40
2023-10-06T23:51:47.293Z,10.40
2023-10-06T23:54:21.186Z,10.30
2023-10-06T23:56:55.339Z,10.20
2023-10-06T23:59:29.766Z,10.20
